Time;durP1;ratioP1;P1;durP2;ratioP2;P2;SDS_P1;SDS_P2;PMS_P1;PMS_P2;Temp;Humidity;BMP_temperature;BMP_pressure;BME280_temperature;BME280_humidity;BME280_pressure;Samples;Min_cycle;Max_cycle;Signal;HPM_P1;HPM_P2
2023/08/12 00:00:21;;;;;;;4.50;3.00;;;20.60;99.90;;;;;;5141017;27;20105;-77
2023/08/12 00:02:47;;;;;;;3.65;3.10;;;20.60;99.90;;;;;;5130557;27;20484;-78
2023/08/12 00:05:13;;;;;;;3.85;2.58;;;20.50;99.90;;;;;;5136152;27;20081;-78
2023/08/12 00:07:42;;;;;;;2.65;2.40;;;20.50;99.90;;;;;;5132060;27;20115;-77
2023/08/12 00:10:10;;;;;;;4.78;3.20;;;20.50;99.90;;;;;;5133999;27;20039;-79
2023/08/12 00:12:36;;;;;;;4.85;2.40;;;20.50;99.90;;;;;;5103822;28;20055;-79
2023/08/12 00:15:06;;;;;;;3.20;2.47;;;20.40;99.90;;;;;;5141279;27;20051;-79
2023/08/12 00:17:32;;;;;;;3.60;3.17;;;20.40;99.90;;;;;;5114619;28;20054;-78
2023/08/12 00:19:58;;;;;;;5.82;3.40;;;20.40;99.90;;;;;;5121479;27;20055;-78
2023/08/12 00:22:24;;;;;;;3.28;2.65;;;20.40;99.90;;;;;;5127098;27;20046;-78
2023/08/12 00:24:49;;;;;;;4.35;2.88;;;20.30;99.90;;;;;;5140478;27;20049;-77
2023/08/12 00:27:15;;;;;;;4.80;2.97;;;20.20;99.90;;;;;;5108810;27;20068;-80
2023/08/12 00:29:41;;;;;;;4.07;2.78;;;20.20;99.90;;;;;;5122337;27;20053;-77
2023/08/12 00:32:09;;;;;;;3.10;2.80;;;20.10;99.90;;;;;;5127588;27;20054;-78
2023/08/12 00:34:34;;;;;;;4.05;2.97;;;20.10;99.90;;;;;;5134506;27;20055;-77
2023/08/12 00:37:00;;;;;;;3.40;3.10;;;20.10;99.90;;;;;;5100570;27;20043;-80
2023/08/12 00:39:26;;;;;;;6.80;3.30;;;20.10;99.90;;;;;;5121073;27;20051;-79
2023/08/12 00:41:52;;;;;;;6.03;2.90;;;20.00;99.90;;;;;;5123907;27;20105;-77
2023/08/12 00:44:17;;;;;;;4.72;3.38;;;20.00;99.90;;;;;;5129835;27;20047;-78
2023/08/12 00:46:43;;;;;;;4.07;3.10;;;20.00;99.90;;;;;;5121694;27;20545;-77
2023/08/12 00:49:11;;;;;;;6.40;3.25;;;20.00;99.90;;;;;;5120973;27;20039;-78
2023/08/12 00:51:41;;;;;;;4.75;3.50;;;20.00;99.90;;;;;;5139559;27;20223;-77
2023/08/12 00:54:08;;;;;;;4.75;3.28;;;20.00;99.90;;;;;;5133021;27;20745;-77
2023/08/12 00:56:35;;;;;;;4.63;2.85;;;19.90;99.90;;;;;;5136646;27;20050;-78
2023/08/12 00:59:04;;;;;;;3.30;2.60;;;19.90;99.90;;;;;;5112766;27;20047;-81
2023/08/12 01:01:30;;;;;;;4.30;2.97;;;19.90;99.90;;;;;;5118599;27;20829;-79
2023/08/12 01:03:57;;;;;;;3.05;2.72;;;19.90;99.90;;;;;;5134006;27;20125;-79
2023/08/12 01:06:23;;;;;;;4.60;3.25;;;19.90;99.90;;;;;;5111124;27;20464;-78
2023/08/12 01:08:50;;;;;;;6.07;2.75;;;19.90;99.90;;;;;;5133705;27;20047;-78
2023/08/12 01:11:29;;;;;;;3.33;2.88;;;19.90;99.90;;;;;;5091589;27;20054;-79
2023/08/12 01:14:02;;;;;;;3.75;2.95;;;20.00;99.90;;;;;;5130328;27;20147;-78
2023/08/12 01:16:32;;;;;;;3.50;2.75;;;19.90;99.90;;;;;;5144152;27;20057;-78
2023/08/12 01:19:00;;;;;;;5.57;3.13;;;19.80;99.90;;;;;;5129852;27;20487;-78
2023/08/12 01:21:31;;;;;;;4.18;3.20;;;19.80;99.90;;;;;;5125260;27;20047;-79
2023/08/12 01:23:57;;;;;;;4.57;3.30;;;19.80;99.90;;;;;;5129714;27;20099;-79
2023/08/12 01:26:22;;;;;;;4.75;4.20;;;19.80;99.90;;;;;;5125442;27;20129;-78
2023/08/12 01:28:48;;;;;;;4.07;2.88;;;19.80;99.90;;;;;;5129617;27;20094;-77
2023/08/12 01:31:34;;;;;;;5.50;3.75;;;19.80;99.90;;;;;;5136971;27;20138;-79
2023/08/12 01:34:15;;;;;;;4.78;3.20;;;19.80;99.90;;;;;;5125334;27;20047;-78
2023/08/12 01:36:52;;;;;;;6.13;3.80;;;19.70;99.90;;;;;;5132401;27;20506;-78
2023/08/12 01:39:19;;;;;;;4.25;3.50;;;19.70;99.90;;;;;;5108005;27;20075;-77
2023/08/12 01:41:45;;;;;;;7.10;3.92;;;19.60;99.90;;;;;;5117940;27;20091;-78
2023/08/12 01:44:11;;;;;;;4.70;3.60;;;19.60;99.90;;;;;;5107301;27;20527;-78
2023/08/12 01:46:37;;;;;;;5.13;4.18;;;19.60;99.90;;;;;;5136866;27;20157;-78
2023/08/12 01:49:03;;;;;;;4.78;3.45;;;19.60;99.90;;;;;;5125884;27;20041;-77
2023/08/12 01:51:29;;;;;;;9.13;4.55;;;19.50;99.90;;;;;;5123748;27;20054;-78
2023/08/12 01:53:55;;;;;;;4.57;3.83;;;19.60;99.90;;;;;;5138979;27;20311;-78
2023/08/12 01:56:20;;;;;;;3.70;3.22;;;19.60;99.90;;;;;;5110148;27;20589;-78
2023/08/12 01:58:46;;;;;;;4.97;3.65;;;19.60;99.90;;;;;;5127596;27;20075;-80
2023/08/12 02:01:12;;;;;;;6.30;4.57;;;19.50;99.90;;;;;;5122970;27;20146;-77
2023/08/12 02:03:38;;;;;;;6.10;3.85;;;19.50;99.90;;;;;;5132715;27;20685;-79
2023/08/12 02:06:04;;;;;;;5.63;3.67;;;19.50;99.90;;;;;;5126768;27;20062;-78
2023/08/12 02:08:30;;;;;;;4.70;4.18;;;19.50;99.90;;;;;;5123116;27;20043;-77
2023/08/12 02:10:55;;;;;;;6.65;4.85;;;19.50;99.90;;;;;;5137979;27;20054;-80
2023/08/12 02:13:21;;;;;;;6.30;4.15;;;19.40;99.90;;;;;;5139496;27;20046;-78
2023/08/12 02:15:47;;;;;;;8.63;5.80;;;19.50;99.90;;;;;;5126029;27;20051;-77
2023/08/12 02:18:12;;;;;;;7.05;4.53;;;19.50;99.90;;;;;;5115281;27;20130;-77
2023/08/12 02:20:41;;;;;;;8.98;4.78;;;19.50;99.90;;;;;;5129499;27;20150;-78
2023/08/12 02:23:06;;;;;;;5.57;4.07;;;19.50;99.90;;;;;;5122809;27;20134;-78
2023/08/12 02:25:32;;;;;;;7.60;4.82;;;19.50;99.90;;;;;;5104514;27;20055;-77
2023/08/12 02:27:58;;;;;;;5.78;5.00;;;19.50;99.90;;;;;;5105652;27;20076;-77
2023/08/12 02:30:23;;;;;;;8.68;4.50;;;19.50;99.90;;;;;;5106493;27;20114;-78
2023/08/12 02:32:49;;;;;;;5.18;3.83;;;19.50;99.90;;;;;;5123543;27;20051;-78
2023/08/12 02:35:17;;;;;;;8.25;4.88;;;19.50;99.90;;;;;;5117767;27;20475;-77
2023/08/12 02:37:43;;;;;;;7.88;4.85;;;19.60;99.90;;;;;;5117935;27;20051;-77
2023/08/12 02:40:10;;;;;;;6.07;3.83;;;19.50;99.90;;;;;;5136110;27;20043;-78
2023/08/12 02:42:39;;;;;;;5.22;4.68;;;19.50;99.90;;;;;;5104152;27;20062;-77
2023/08/12 02:45:05;;;;;;;7.70;5.13;;;19.60;99.90;;;;;;5122140;27;20043;-77
2023/08/12 02:47:31;;;;;;;7.07;5.15;;;19.60;99.90;;;;;;5127676;27;20058;-77
2023/08/12 02:49:56;;;;;;;7.18;5.78;;;19.60;99.90;;;;;;5120831;27;20047;-78
2023/08/12 02:52:22;;;;;;;7.95;7.07;;;19.50;99.90;;;;;;5102406;27;20055;-79
2023/08/12 02:54:48;;;;;;;7.57;5.20;;;19.60;99.90;;;;;;5121439;27;20065;-77
2023/08/12 02:57:14;;;;;;;7.28;5.32;;;19.50;99.90;;;;;;5094775;27;20495;-78
2023/08/12 02:59:39;;;;;;;10.38;6.30;;;19.50;99.90;;;;;;5135594;27;20569;-78
2023/08/12 03:02:05;;;;;;;9.90;5.68;;;19.50;99.90;;;;;;5121681;27;20589;-79
2023/08/12 03:04:31;;;;;;;9.38;6.28;;;19.60;99.90;;;;;;5132398;27;20098;-78
2023/08/12 03:06:56;;;;;;;8.65;6.03;;;19.50;99.90;;;;;;5140611;27;20050;-76
2023/08/12 03:09:22;;;;;;;12.48;7.10;;;19.60;99.90;;;;;;5142415;27;20125;-77
2023/08/12 03:11:48;;;;;;;6.55;5.53;;;19.50;99.90;;;;;;5089798;27;20039;-77
2023/08/12 03:14:13;;;;;;;13.27;6.80;;;19.50;99.90;;;;;;5110963;27;20080;-77
2023/08/12 03:16:39;;;;;;;8.98;5.90;;;19.50;99.90;;;;;;5129169;27;20043;-78
2023/08/12 03:19:05;;;;;;;8.18;6.00;;;19.50;99.90;;;;;;5120916;27;20043;-77
2023/08/12 03:21:31;;;;;;;9.10;6.25;;;19.50;99.90;;;;;;5132235;27;20753;-77
2023/08/12 03:23:56;;;;;;;8.63;5.95;;;19.40;99.90;;;;;;5123725;27;20491;-77
2023/08/12 03:26:22;;;;;;;9.57;6.93;;;19.50;99.90;;;;;;5131255;27;20042;-77
2023/08/12 03:28:47;;;;;;;8.65;7.38;;;19.40;99.90;;;;;;5109134;27;20050;-78
2023/08/12 03:31:13;;;;;;;8.02;6.15;;;19.40;99.90;;;;;;5137275;27;20042;-77
2023/08/12 03:33:39;;;;;;;10.77;8.10;;;19.40;99.90;;;;;;5140628;27;20063;-77
2023/08/12 03:36:05;;;;;;;14.65;8.20;;;19.40;99.90;;;;;;5141264;27;20116;-79
2023/08/12 03:38:30;;;;;;;9.32;7.40;;;19.40;99.90;;;;;;5127841;27;20117;-78
2023/08/12 03:40:56;;;;;;;8.82;6.70;;;19.30;99.90;;;;;;5113348;27;20043;-79
2023/08/12 03:43:22;;;;;;;12.55;8.07;;;19.40;99.90;;;;;;5118290;27;20039;-77
2023/08/12 03:45:47;;;;;;;10.45;7.63;;;19.30;99.90;;;;;;5120737;27;20094;-79
2023/08/12 03:48:13;;;;;;;10.82;7.55;;;19.20;99.90;;;;;;5140495;27;20046;-77
2023/08/12 03:50:39;;;;;;;10.82;8.27;;;19.30;99.90;;;;;;5109519;27;20058;-78
2023/08/12 03:53:06;;;;;;;9.00;7.65;;;19.30;99.90;;;;;;5134078;27;20093;-77
2023/08/12 03:55:32;;;;;;;9.13;6.70;;;19.30;99.90;;;;;;5120090;27;20050;-77
2023/08/12 03:58:01;;;;;;;12.65;8.05;;;19.30;99.90;;;;;;5125380;27;20118;-77
2023/08/12 04:00:27;;;;;;;10.65;8.45;;;19.30;99.90;;;;;;5113020;27;20100;-77
2023/08/12 04:02:53;;;;;;;9.75;7.53;;;19.30;99.90;;;;;;5127359;27;20047;-77
2023/08/12 04:05:19;;;;;;;8.45;7.03;;;19.30;99.90;;;;;;5132414;27;20387;-77
2023/08/12 04:07:44;;;;;;;10.23;8.25;;;19.30;99.90;;;;;;5107107;27;20047;-77
2023/08/12 04:10:10;;;;;;;13.63;8.68;;;19.30;99.90;;;;;;5122332;27;20061;-78
2023/08/12 04:12:36;;;;;;;12.45;9.63;;;19.40;99.90;;;;;;5127361;27;20118;-76
2023/08/12 04:15:04;;;;;;;11.10;9.00;;;19.40;99.90;;;;;;5126263;27;20054;-77
2023/08/12 04:17:30;;;;;;;10.45;9.35;;;19.40;99.90;;;;;;5119851;27;20111;-77
2023/08/12 04:19:56;;;;;;;14.90;8.50;;;19.50;99.90;;;;;;5126550;27;20454;-79
2023/08/12 04:22:21;;;;;;;13.55;8.63;;;19.50;99.90;;;;;;5137293;27;20464;-76
2023/08/12 04:24:47;;;;;;;8.95;7.38;;;19.50;99.90;;;;;;5121380;27;20054;-78
2023/08/12 04:27:13;;;;;;;11.57;9.43;;;19.50;99.90;;;;;;5104099;28;20043;-78
2023/08/12 04:29:38;;;;;;;11.57;7.88;;;19.50;99.90;;;;;;5124834;27;20046;-78
2023/08/12 04:32:04;;;;;;;10.73;8.52;;;19.50;99.90;;;;;;5124717;27;20150;-77
2023/08/12 04:34:30;;;;;;;11.43;9.15;;;19.50;99.90;;;;;;5089453;27;20118;-78
2023/08/12 04:36:56;;;;;;;11.82;9.07;;;19.60;99.90;;;;;;5130689;27;20557;-79
2023/08/12 04:39:22;;;;;;;13.05;10.50;;;19.60;99.90;;;;;;5131783;27;20047;-78
2023/08/12 04:41:48;;;;;;;11.15;8.95;;;19.60;99.90;;;;;;5135029;27;20042;-77
2023/08/12 04:44:14;;;;;;;13.65;10.30;;;19.60;99.90;;;;;;5131343;27;20035;-81
2023/08/12 04:46:39;;;;;;;9.60;7.38;;;19.60;99.90;;;;;;5131264;27;20035;-78
2023/08/12 04:49:05;;;;;;;11.45;8.35;;;19.70;99.90;;;;;;5112420;27;20062;-79
2023/08/12 04:51:31;;;;;;;13.38;10.07;;;19.70;99.90;;;;;;5145443;27;20082;-79
2023/08/12 04:53:57;;;;;;;11.35;8.52;;;19.60;99.90;;;;;;5144972;27;20050;-76
2023/08/12 04:56:24;;;;;;;13.80;9.10;;;19.60;99.90;;;;;;5138604;27;20051;-78
2023/08/12 04:58:50;;;;;;;18.63;9.40;;;19.70;99.90;;;;;;5102723;27;20046;-77
2023/08/12 05:01:15;;;;;;;13.95;9.68;;;19.70;99.90;;;;;;5133427;27;20489;-78
2023/08/12 05:03:41;;;;;;;11.60;9.95;;;19.70;99.90;;;;;;5110417;27;20086;-77
2023/08/12 05:06:07;;;;;;;12.50;9.55;;;19.70;99.90;;;;;;5115403;27;20130;-78
2023/08/12 05:08:32;;;;;;;9.82;7.82;;;19.80;99.90;;;;;;5094141;27;20043;-79
2023/08/12 05:10:58;;;;;;;12.10;9.98;;;19.80;99.90;;;;;;5132819;27;20057;-78
2023/08/12 05:13:24;;;;;;;12.70;9.05;;;19.70;99.90;;;;;;5119175;27;20047;-78
2023/08/12 05:15:50;;;;;;;11.57;9.13;;;19.80;99.90;;;;;;5101831;27;20046;-77
2023/08/12 05:18:15;;;;;;;11.55;9.43;;;19.80;99.90;;;;;;5124683;27;20120;-78
2023/08/12 05:20:42;;;;;;;9.18;8.30;;;19.90;99.90;;;;;;5143026;27;20042;-78
2023/08/12 05:23:08;;;;;;;13.23;9.30;;;19.90;99.90;;;;;;5127213;27;20436;-79
2023/08/12 05:25:34;;;;;;;12.23;8.52;;;19.90;99.90;;;;;;5124157;27;20043;-79
2023/08/12 05:28:00;;;;;;;12.35;8.45;;;20.10;99.90;;;;;;5132217;27;20043;-78
2023/08/12 05:30:25;;;;;;;15.10;9.38;;;20.20;99.90;;;;;;5105182;27;20141;-79
2023/08/12 05:32:51;;;;;;;14.85;8.93;;;20.20;99.90;;;;;;5137918;27;20118;-78
2023/08/12 05:35:17;;;;;;;11.75;8.88;;;20.30;99.90;;;;;;5110518;27;20074;-78
2023/08/12 05:37:42;;;;;;;11.02;9.15;;;20.30;99.90;;;;;;5137034;27;20159;-80
2023/08/12 05:40:09;;;;;;;16.42;9.35;;;20.40;99.90;;;;;;5128586;27;20519;-81
2023/08/12 05:42:35;;;;;;;12.35;9.50;;;20.40;99.90;;;;;;5123317;27;20034;-79
2023/08/12 05:45:01;;;;;;;10.38;8.45;;;20.50;99.90;;;;;;5123679;27;20362;-78
2023/08/12 05:47:27;;;;;;;10.55;7.82;;;20.50;99.90;;;;;;5136743;27;20749;-78
2023/08/12 05:49:53;;;;;;;13.30;9.15;;;20.60;99.90;;;;;;5116343;27;20125;-79
2023/08/12 05:52:19;;;;;;;10.45;8.52;;;20.60;99.90;;;;;;5116288;27;20062;-80
2023/08/12 05:54:44;;;;;;;11.43;9.60;;;20.70;99.90;;;;;;5094660;27;20050;-78
2023/08/12 05:57:10;;;;;;;11.98;8.55;;;20.70;99.90;;;;;;5137128;27;20057;-78
2023/08/12 05:59:35;;;;;;;12.32;8.55;;;20.80;99.90;;;;;;5135297;27;20566;-78
2023/08/12 06:02:01;;;;;;;14.07;8.38;;;20.80;99.90;;;;;;5115153;27;20039;-77
2023/08/12 06:04:27;;;;;;;11.85;9.48;;;20.90;99.90;;;;;;5124563;27;20043;-77
2023/08/12 06:06:52;;;;;;;13.85;8.82;;;20.90;99.90;;;;;;5122070;27;20613;-79
2023/08/12 06:09:18;;;;;;;11.93;8.52;;;20.90;99.90;;;;;;5136230;27;20070;-77
2023/08/12 06:11:44;;;;;;;10.77;8.32;;;21.00;99.90;;;;;;5120954;27;20604;-77
2023/08/12 06:14:09;;;;;;;11.35;8.18;;;21.00;99.90;;;;;;5114758;27;20069;-78
2023/08/12 06:16:35;;;;;;;10.85;8.18;;;21.10;99.90;;;;;;5142235;27;20054;-79
2023/08/12 06:19:01;;;;;;;12.20;8.35;;;21.20;99.90;;;;;;5136437;27;20053;-79
2023/08/12 06:21:27;;;;;;;12.73;8.02;;;21.30;99.90;;;;;;5132592;27;20039;-78
2023/08/12 06:23:52;;;;;;;8.98;6.85;;;21.40;99.90;;;;;;5119157;27;20090;-79
2023/08/12 06:26:18;;;;;;;10.20;7.93;;;21.50;99.90;;;;;;5128309;27;20432;-79
2023/08/12 06:28:44;;;;;;;14.75;7.32;;;21.50;99.90;;;;;;5101613;27;20258;-78
2023/08/12 06:31:09;;;;;;;12.10;7.78;;;21.50;99.90;;;;;;5127818;27;20051;-79
2023/08/12 06:33:35;;;;;;;13.75;8.05;;;21.50;99.90;;;;;;5133434;27;20124;-80
2023/08/12 06:36:01;;;;;;;10.38;7.47;;;21.50;99.90;;;;;;5120794;27;20049;-78
2023/08/12 06:38:27;;;;;;;10.77;7.55;;;21.50;99.90;;;;;;5100966;27;20353;-77
2023/08/12 06:40:53;;;;;;;11.80;8.57;;;21.50;99.90;;;;;;5123664;27;20073;-79
2023/08/12 06:43:18;;;;;;;9.30;7.07;;;21.50;99.90;;;;;;5100771;27;20043;-78
2023/08/12 06:45:44;;;;;;;11.02;8.60;;;21.50;99.90;;;;;;5087835;27;20043;-79
2023/08/12 06:48:09;;;;;;;11.88;8.98;;;21.50;99.90;;;;;;5131855;27;20050;-79
2023/08/12 06:50:35;;;;;;;13.00;9.32;;;21.60;99.90;;;;;;5133918;27;20079;-81
2023/08/12 06:53:01;;;;;;;12.25;8.88;;;21.60;99.90;;;;;;5112776;27;20499;-77
2023/08/12 06:55:27;;;;;;;10.95;7.75;;;21.60;99.90;;;;;;5106963;27;20624;-79
2023/08/12 06:57:53;;;;;;;15.73;9.35;;;21.70;99.90;;;;;;5095581;27;20051;-79
2023/08/12 07:00:19;;;;;;;14.45;9.38;;;21.70;99.90;;;;;;5110066;27;20654;-79
2023/08/12 07:02:44;;;;;;;11.60;8.40;;;21.70;99.90;;;;;;5106069;27;20160;-79
2023/08/12 07:05:10;;;;;;;9.88;8.18;;;21.70;99.90;;;;;;5129222;27;20160;-78
2023/08/12 07:07:36;;;;;;;16.27;8.80;;;21.70;99.90;;;;;;5125243;27;20059;-79
2023/08/12 07:10:01;;;;;;;12.75;9.75;;;21.70;99.90;;;;;;5111117;27;20039;-79
2023/08/12 07:12:27;;;;;;;15.90;11.18;;;21.80;99.90;;;;;;5132138;27;20055;-81
2023/08/12 07:14:53;;;;;;;14.35;10.63;;;21.70;99.90;;;;;;5129422;27;20559;-83
2023/08/12 07:17:18;;;;;;;13.52;11.05;;;21.70;99.90;;;;;;5122988;27;20047;-83
2023/08/12 07:19:44;;;;;;;12.30;9.40;;;21.70;99.90;;;;;;5116908;27;20522;-84
2023/08/12 07:22:10;;;;;;;18.58;11.73;;;21.70;99.90;;;;;;5136434;27;20947;-84
2023/08/12 07:24:36;;;;;;;15.02;11.48;;;21.70;99.90;;;;;;5136686;27;20042;-83
2023/08/12 07:27:02;;;;;;;14.73;11.05;;;21.60;99.90;;;;;;5132979;27;20478;-84
2023/08/12 07:29:27;;;;;;;19.65;11.40;;;21.60;99.90;;;;;;5129637;27;20491;-83
2023/08/12 07:31:54;;;;;;;14.77;11.02;;;21.60;99.90;;;;;;5113791;27;20043;-83
2023/08/12 07:34:20;;;;;;;18.98;11.75;;;21.70;99.90;;;;;;5129032;27;20884;-83
2023/08/12 07:36:46;;;;;;;16.52;12.85;;;21.70;99.90;;;;;;5126424;27;20519;-83
2023/08/12 07:39:11;;;;;;;18.55;13.38;;;21.60;99.90;;;;;;5140953;27;20038;-83
2023/08/12 07:41:37;;;;;;;17.30;11.18;;;21.60;99.90;;;;;;5120417;27;20043;-84
2023/08/12 07:44:04;;;;;;;14.75;10.90;;;21.60;99.90;;;;;;5135099;27;20117;-84
2023/08/12 07:46:29;;;;;;;17.23;11.43;;;21.70;99.90;;;;;;5121896;27;20051;-84
2023/08/12 07:48:56;;;;;;;17.48;12.23;;;21.70;99.90;;;;;;5113068;27;20153;-83
2023/08/12 07:51:22;;;;;;;18.92;12.30;;;21.70;99.90;;;;;;5129216;27;20141;-86
2023/08/12 07:53:48;;;;;;;15.63;12.27;;;21.80;99.90;;;;;;5140323;27;20054;-85
2023/08/12 07:56:13;;;;;;;18.67;12.48;;;21.80;99.90;;;;;;5123521;27;20893;-84
2023/08/12 07:58:39;;;;;;;15.55;12.25;;;21.80;99.90;;;;;;5105033;27;20484;-85
2023/08/12 08:01:05;;;;;;;17.55;13.27;;;21.90;99.90;;;;;;5093546;27;20061;-85
2023/08/12 08:03:31;;;;;;;19.13;14.43;;;21.90;99.90;;;;;;5133075;27;20887;-83
2023/08/12 08:05:56;;;;;;;15.90;12.75;;;21.90;99.90;;;;;;5129821;27;20043;-84
2023/08/12 08:08:22;;;;;;;17.27;12.93;;;22.00;99.90;;;;;;5092158;28;20067;-84
2023/08/12 08:10:48;;;;;;;23.08;14.23;;;22.00;99.90;;;;;;5135806;27;20053;-85
2023/08/12 08:13:14;;;;;;;19.20;13.63;;;22.00;99.90;;;;;;5111159;27;20072;-82
2023/08/12 08:15:39;;;;;;;21.70;14.70;;;22.00;99.90;;;;;;5134513;27;20061;-86
2023/08/12 08:18:05;;;;;;;17.27;14.25;;;22.00;99.90;;;;;;5122367;27;20047;-83
2023/08/12 08:20:31;;;;;;;20.73;14.13;;;22.00;99.90;;;;;;5107688;27;20046;-84
2023/08/12 08:22:57;;;;;;;17.77;13.40;;;22.10;99.90;;;;;;5136859;27;20138;-85
2023/08/12 08:25:22;;;;;;;21.25;14.80;;;22.10;99.90;;;;;;5123606;27;20039;-83
2023/08/12 08:27:48;;;;;;;19.35;14.55;;;22.20;99.90;;;;;;5100350;27;20207;-86
2023/08/12 08:30:14;;;;;;;19.20;14.20;;;22.30;99.90;;;;;;5112840;28;20043;-85
2023/08/12 08:32:40;;;;;;;15.65;12.75;;;22.30;99.90;;;;;;5120405;27;20058;-84
2023/08/12 08:35:06;;;;;;;16.50;13.50;;;22.30;99.90;;;;;;5119204;27;20514;-84
2023/08/12 08:37:32;;;;;;;17.13;13.70;;;22.30;99.90;;;;;;5102050;27;20051;-84
2023/08/12 08:39:57;;;;;;;16.25;14.25;;;22.30;99.90;;;;;;5099816;28;20854;-83
2023/08/12 08:42:24;;;;;;;19.50;13.00;;;22.20;99.90;;;;;;5128871;27;20157;-82
2023/08/12 08:44:55;;;;;;;14.63;13.05;;;22.20;99.90;;;;;;5085452;28;20054;-85
2023/08/12 08:47:28;;;;;;;17.15;13.77;;;22.10;99.90;;;;;;5114081;27;20582;-85
2023/08/12 08:49:56;;;;;;;17.27;13.63;;;22.10;99.90;;;;;;5125548;27;20049;-84
2023/08/12 08:52:23;;;;;;;18.30;13.15;;;22.10;99.90;;;;;;5125002;27;20500;-84
2023/08/12 08:54:49;;;;;;;18.45;13.10;;;22.20;99.90;;;;;;5118688;27;20534;-85
2023/08/12 08:57:16;;;;;;;19.88;13.80;;;22.20;99.90;;;;;;5118230;27;20047;-85
2023/08/12 08:59:41;;;;;;;15.65;12.48;;;22.10;99.90;;;;;;5122934;27;20046;-83
2023/08/12 09:02:15;;;;;;;15.02;12.68;;;22.00;99.90;;;;;;5128223;27;20903;-85
2023/08/12 09:04:41;;;;;;;17.15;12.68;;;22.00;99.90;;;;;;5099286;28;20122;-84
2023/08/12 09:07:08;;;;;;;14.65;11.27;;;21.90;99.90;;;;;;5098654;28;20790;-84
2023/08/12 09:09:35;;;;;;;16.25;10.88;;;21.90;99.90;;;;;;5118761;27;20046;-83
2023/08/12 09:12:03;;;;;;;14.93;12.10;;;21.80;99.90;;;;;;5124535;27;20130;-82
2023/08/12 09:14:29;;;;;;;16.00;11.93;;;21.80;99.90;;;;;;5132497;27;20079;-82
2023/08/12 09:16:55;;;;;;;15.73;12.55;;;21.70;99.90;;;;;;5129625;27;20118;-83
2023/08/12 09:19:22;;;;;;;17.30;12.25;;;21.70;99.90;;;;;;5131348;27;20047;-83
2023/08/12 09:21:54;;;;;;;17.20;13.18;;;21.60;99.90;;;;;;5110674;27;20078;-82
2023/08/12 09:24:27;;;;;;;19.05;13.35;;;21.60;99.90;;;;;;5141971;27;20042;-81
2023/08/12 09:26:55;;;;;;;20.83;14.35;;;21.60;99.90;;;;;;5134732;27;20096;-80
2023/08/12 09:29:29;;;;;;;15.07;12.40;;;21.60;99.90;;;;;;5142446;27;20057;-79
2023/08/12 09:32:04;;;;;;;15.13;12.93;;;21.50;99.90;;;;;;5120164;27;20038;-79
2023/08/12 09:34:30;;;;;;;16.05;12.80;;;21.40;99.90;;;;;;5128933;27;20062;-78
2023/08/12 09:36:56;;;;;;;15.95;12.95;;;21.30;99.90;;;;;;5129020;27;20050;-78
2023/08/12 09:39:21;;;;;;;16.20;13.82;;;21.30;99.90;;;;;;5135557;27;20759;-76
2023/08/12 09:41:47;;;;;;;19.45;14.25;;;21.20;99.90;;;;;;5116313;27;20054;-76
2023/08/12 09:44:13;;;;;;;18.60;14.23;;;21.20;99.90;;;;;;5135621;27;20042;-80
2023/08/12 09:46:39;;;;;;;19.00;12.82;;;21.20;99.90;;;;;;5132492;27;20129;-76
2023/08/12 09:49:06;;;;;;;16.25;13.25;;;21.20;99.90;;;;;;5145282;27;20047;-80
2023/08/12 09:51:36;;;;;;;15.50;13.85;;;21.20;99.90;;;;;;5110952;27;20054;-76
2023/08/12 09:54:02;;;;;;;10.43;9.43;;;21.10;99.90;;;;;;5139187;27;20054;-77
2023/08/12 09:56:36;;;;;;;12.52;9.82;;;21.10;99.90;;;;;;5105960;27;20341;-77
2023/08/12 09:59:05;;;;;;;10.35;8.52;;;21.10;99.90;;;;;;5129207;27;20051;-77
2023/08/12 10:01:31;;;;;;;13.60;10.38;;;21.00;99.90;;;;;;5132064;27;20570;-77
2023/08/12 10:03:57;;;;;;;9.77;8.63;;;21.00;99.90;;;;;;5123030;27;20046;-76
2023/08/12 10:06:24;;;;;;;12.05;8.38;;;20.90;99.90;;;;;;5134172;27;20733;-77
2023/08/12 10:08:50;;;;;;;13.93;9.20;;;21.00;99.90;;;;;;5128103;27;20047;-77
2023/08/12 10:11:16;;;;;;;15.48;9.25;;;20.90;99.90;;;;;;5128330;27;20042;-76
2023/08/12 10:13:43;;;;;;;9.63;8.50;;;20.90;99.90;;;;;;5136473;27;20101;-79
2023/08/12 10:16:09;;;;;;;10.45;8.20;;;21.00;99.90;;;;;;5121769;27;20127;-78
2023/08/12 10:18:38;;;;;;;8.77;7.15;;;20.90;99.90;;;;;;5134074;27;20122;-75
2023/08/12 10:21:05;;;;;;;7.75;6.63;;;21.00;99.90;;;;;;5129592;27;20821;-74
2023/08/12 10:23:32;;;;;;;9.20;6.28;;;21.10;99.90;;;;;;5128342;27;20130;-77
2023/08/12 10:25:59;;;;;;;5.90;5.30;;;21.10;99.90;;;;;;5140238;27;20051;-78
2023/08/12 10:28:25;;;;;;;6.15;5.05;;;21.00;99.90;;;;;;5122704;27;20038;-76
2023/08/12 10:30:52;;;;;;;6.38;4.50;;;20.90;99.90;;;;;;5133502;27;20047;-77
2023/08/12 10:33:18;;;;;;;6.03;5.43;;;21.00;99.90;;;;;;5138200;27;20130;-76
2023/08/12 10:35:48;;;;;;;9.68;6.03;;;20.90;99.90;;;;;;5131537;27;20054;-75
2023/08/12 10:38:18;;;;;;;7.45;5.32;;;21.00;99.90;;;;;;5123127;27;20157;-76
2023/08/12 10:40:44;;;;;;;7.40;5.25;;;21.00;99.90;;;;;;5122986;27;20043;-75
2023/08/12 10:43:11;;;;;;;7.05;5.47;;;21.00;99.90;;;;;;5102460;27;20495;-75
2023/08/12 10:45:48;;;;;;;5.78;4.70;;;21.10;99.90;;;;;;5124084;27;20093;-76
2023/08/12 10:48:24;;;;;;;6.25;4.57;;;21.10;99.90;;;;;;5141905;27;20051;-76
2023/08/12 10:51:00;;;;;;;7.00;4.80;;;21.10;99.90;;;;;;5137074;27;20047;-75
2023/08/12 10:53:33;;;;;;;5.57;4.57;;;21.10;99.90;;;;;;5125127;27;20047;-77
2023/08/12 10:56:03;;;;;;;;;;;21.10;99.90;;;;;;5135743;27;20043;-79
2023/08/12 10:58:45;;;;;;;8.90;4.35;;;21.10;99.90;;;;;;5130338;27;19930;-74
2023/08/12 11:01:16;;;;;;;6.47;4.53;;;21.10;99.90;;;;;;5115526;27;20142;-76
2023/08/12 11:03:43;;;;;;;5.90;4.43;;;21.20;99.90;;;;;;5123270;27;20051;-75
2023/08/12 11:06:12;;;;;;;6.55;4.63;;;21.20;99.90;;;;;;5133875;27;20403;-74
2023/08/12 11:08:55;;;;;;;4.40;4.00;;;21.20;99.90;;;;;;5133500;27;20153;-74
2023/08/12 11:11:24;;;;;;;;;;;21.10;99.90;;;;;;5121568;27;20058;-76
2023/08/12 11:13:54;;;;;;;6.22;3.97;;;21.10;99.90;;;;;;5121901;27;19934;-74
2023/08/12 11:16:35;;;;;;;5.00;4.40;;;21.10;99.90;;;;;;5121742;27;20102;-75
2023/08/12 11:19:02;;;;;;;5.18;3.97;;;21.30;99.90;;;;;;5142795;27;20158;-74
2023/08/12 11:21:28;;;;;;;5.00;3.88;;;21.20;99.90;;;;;;5137773;27;20055;-74
2023/08/12 11:23:55;;;;;;;4.18;3.33;;;21.40;99.90;;;;;;5140868;27;20058;-75
2023/08/12 11:26:23;;;;;;;3.60;3.30;;;21.30;99.90;;;;;;5133840;27;20402;-75
2023/08/12 11:28:49;;;;;;;3.92;3.50;;;21.40;99.90;;;;;;5131738;27;20043;-73
2023/08/12 11:31:15;;;;;;;3.78;3.35;;;21.40;99.90;;;;;;5129003;27;20054;-74
2023/08/12 11:33:41;;;;;;;4.07;3.35;;;21.40;99.90;;;;;;5131777;27;20127;-74
2023/08/12 11:36:07;;;;;;;4.18;3.78;;;21.50;99.90;;;;;;5132635;27;20043;-73
2023/08/12 11:38:33;;;;;;;4.63;3.33;;;21.50;99.90;;;;;;5091135;27;20106;-75
2023/08/12 11:41:02;;;;;;;4.68;3.53;;;21.60;99.90;;;;;;5126827;27;20555;-74
2023/08/12 11:43:30;;;;;;;4.22;3.15;;;21.60;99.90;;;;;;5123747;27;20483;-75
2023/08/12 11:45:56;;;;;;;4.72;4.13;;;21.60;99.90;;;;;;5125514;27;20051;-74
2023/08/12 11:48:23;;;;;;;2.40;1.88;;;21.60;99.90;;;;;;5138451;27;20054;-74
2023/08/12 11:50:50;;;;;;;1.55;1.42;;;21.40;99.90;;;;;;5119684;27;20304;-78
2023/08/12 11:53:16;;;;;;;3.05;1.50;;;21.20;99.90;;;;;;5135780;27;20218;-75
2023/08/12 11:55:41;;;;;;;1.30;1.20;;;21.30;99.90;;;;;;5126124;27;20051;-78
2023/08/12 11:58:07;;;;;;;2.17;1.50;;;21.10;99.90;;;;;;5131667;27;20126;-73
2023/08/12 12:00:33;;;;;;;2.13;1.65;;;21.50;99.90;;;;;;5128115;27;20483;-74
2023/08/12 12:02:59;;;;;;;2.97;1.75;;;21.40;99.90;;;;;;5107718;27;20070;-75
2023/08/12 12:05:27;;;;;;;1.33;1.20;;;21.50;99.90;;;;;;5118590;27;20383;-74
2023/08/12 12:07:53;;;;;;;1.75;1.00;;;21.40;99.90;;;;;;5121394;27;20086;-77
2023/08/12 12:10:21;;;;;;;1.98;1.55;;;21.40;99.90;;;;;;5118993;27;20126;-75
2023/08/12 12:12:48;;;;;;;2.10;1.58;;;21.30;99.90;;;;;;5131153;27;20047;-73
2023/08/12 12:15:17;;;;;;;4.10;1.58;;;21.30;99.90;;;;;;5127088;27;20125;-74
2023/08/12 12:17:46;;;;;;;1.27;1.17;;;21.10;99.90;;;;;;5132693;27;20069;-78
2023/08/12 12:20:14;;;;;;;2.40;1.70;;;21.00;99.90;;;;;;5138540;27;20049;-74
2023/08/12 12:22:43;;;;;;;1.70;1.60;;;20.70;99.90;;;;;;5138063;27;20069;-74
2023/08/12 12:25:13;;;;;;;2.70;2.08;;;20.60;99.90;;;;;;5127382;27;20117;-75
2023/08/12 12:27:39;;;;;;;1.95;1.67;;;20.60;99.90;;;;;;5124781;27;20158;-75
2023/08/12 12:30:09;;;;;;;3.92;3.08;;;20.60;99.90;;;;;;5115101;27;20038;-73
2023/08/12 12:32:34;;;;;;;3.38;2.60;;;20.30;99.90;;;;;;5139171;27;20042;-75
2023/08/12 12:35:00;;;;;;;4.22;2.83;;;20.20;99.90;;;;;;5124203;27;20569;-73
2023/08/12 12:37:26;;;;;;;4.05;2.20;;;20.20;99.90;;;;;;5130772;27;20121;-74